Time;durP1;ratioP1;P1;durP2;ratioP2;P2;SDS_P1;SDS_P2;PMS_P1;PMS_P2;Temp;Humidity;BMP_temperature;BMP_pressure;BME280_temperature;BME280_humidity;BME280_pressure;Samples;Min_cycle;Max_cycle;Signal;HPM_P1;HPM_P2
2022/10/05 00:01:07;;;;;;;;;;;;;;;;;;5071457;28;19918;-66
2022/10/05 00:03:37;;;;;;;;;;;;;;;;;;5070576;28;20068;-66
2022/10/05 00:06:03;;;;;;;;;;;;;;;;;;5069595;28;19952;-66
2022/10/05 00:08:29;;;;;;;;;;;;;;;;;;5073749;28;19924;-66
2022/10/05 00:10:55;;;;;;;;;;;;;;;;;;5071087;28;19956;-66
2022/10/05 00:13:21;;;;;;;;;;;;;;;;;;5072990;28;19977;-66
2022/10/05 00:15:47;;;;;;;;;;;;;;;;;;5068290;28;19913;-66
2022/10/05 00:18:13;;;;;;;;;;;;;;;;;;5073201;28;19952;-66
2022/10/05 00:20:39;;;;;;;;;;;;;;;;;;5071589;28;19967;-66
2022/10/05 00:23:05;;;;;;;;;;;;;;;;;;5068215;28;20291;-66
2022/10/05 00:25:31;;;;;;;;;;;;;;;;;;5064719;28;19919;-65
2022/10/05 00:27:56;;;;;;;;;;;;;;;;;;5073148;28;19917;-66
2022/10/05 00:30:22;;;;;;;;;;;;;;;;;;5071295;28;20031;-66
2022/10/05 00:32:48;;;;;;;;;;;;;;;;;;5073918;28;19913;-66
2022/10/05 00:35:14;;;;;;;;;;;;;;;;;;5073280;28;19913;-66
2022/10/05 00:37:40;;;;;;;;;;;;;;;;;;5072970;28;19959;-65
2022/10/05 00:40:06;;;;;;;;;;;;;;;;;;5071095;28;20368;-66
2022/10/05 00:42:32;;;;;;;;;;;;;;;;;;5072563;28;19974;-66
2022/10/05 00:44:58;;;;;;;;;;;;;;;;;;5064873;28;20259;-65
2022/10/05 00:47:24;;;;;;;;;;;;;;;;;;5071859;28;19959;-66
2022/10/05 00:49:49;;;;;;;;;;;;;;;;;;5070596;28;19955;-66
2022/10/05 00:52:20;;;;;;;;;;;;;;;;;;5073325;28;20017;-66
2022/10/05 00:54:46;;;;;;;;;;;;;;;;;;5066818;28;19923;-66
2022/10/05 00:57:12;;;;;;;;;;;;;;;;;;5063098;28;19917;-66
2022/10/05 00:59:39;;;;;;;;;;;;;;;;;;5071855;28;20273;-66
2022/10/05 01:02:05;;;;;;;;;;;;;;;;;;5064236;28;19969;-66
2022/10/05 01:04:31;;;;;;;;;;;;;;;;;;5069669;28;20368;-66
2022/10/05 01:06:56;;;;;;;;;;;;;;;;;;5067535;28;19994;-64
2022/10/05 01:09:22;;;;;;;;;;;;;;;;;;5066006;28;20518;-65
2022/10/05 01:11:48;;;;;;;;;;;;;;;;;;5072173;28;19913;-66
2022/10/05 01:14:14;;;;;;;;;;;;;;;;;;5062399;28;19953;-65
2022/10/05 01:16:40;;;;;;;;;;;;;;;;;;5065846;28;20411;-65
2022/10/05 01:19:06;;;;;;;;;;;;;;;;;;5072320;28;19948;-66
2022/10/05 01:21:32;;;;;;;;;;;;;;;;;;5072224;28;19959;-66
2022/10/05 01:23:58;;;;;;;;;;;;;;;;;;5070970;28;20423;-65
2022/10/05 01:26:24;;;;;;;;;;;;;;;;;;5070094;28;19966;-66
2022/10/05 01:28:49;;;;;;;;;;;;;;;;;;5055390;28;20304;-66
2022/10/05 01:31:15;;;;;;;;;;;;;;;;;;5071890;28;19982;-66
2022/10/05 01:33:41;;;;;;;;;;;;;;;;;;5072089;28;20268;-66
2022/10/05 01:36:07;;;;;;;;;;;;;;;;;;5058529;28;19962;-65
2022/10/05 01:38:33;;;;;;;;;;;;;;;;;;5062148;28;19966;-66
2022/10/05 01:40:59;;;;;;;;;;;;;;;;;;5057295;28;20428;-66
2022/10/05 01:43:25;;;;;;;;;;;;;;;;;;5070777;28;20387;-65
2022/10/05 01:45:51;;;;;;;;;;;;;;;;;;5064990;28;19956;-66
2022/10/05 01:48:17;;;;;;;;;;;;;;;;;;5071249;28;19969;-65
2022/10/05 01:50:43;;;;;;;;;;;;;;;;;;5071676;28;20436;-65
2022/10/05 01:53:08;;;;;;;;;;;;;;;;;;5069370;28;19938;-65
2022/10/05 01:55:34;;;;;;;;;;;;;;;;;;5065061;28;19912;-65
2022/10/05 01:58:00;;;;;;;;;;;;;;;;;;5060231;28;19955;-65
2022/10/05 02:00:26;;;;;;;;;;;;;;;;;;5070364;28;20402;-65
2022/10/05 02:02:52;;;;;;;;;;;;;;;;;;5071490;28;19920;-65
2022/10/05 02:05:18;;;;;;;;;;;;;;;;;;5071159;28;19912;-65
2022/10/05 02:07:44;;;;;;;;;;;;;;;;;;5067649;28;19920;-65
2022/10/05 02:10:10;;;;;;;;;;;;;;;;;;5070002;28;19963;-65
2022/10/05 02:12:36;;;;;;;;;;;;;;;;;;5064674;28;20356;-65
2022/10/05 02:15:02;;;;;;;;;;;;;;;;;;5069457;28;20348;-66
2022/10/05 02:17:28;;;;;;;;;;;;;;;;;;5070843;28;19990;-65
2022/10/05 02:19:54;;;;;;;;;;;;;;;;;;5068787;28;19938;-65
2022/10/05 02:22:20;;;;;;;;;;;;;;;;;;5068902;28;20616;-65
2022/10/05 02:24:46;;;;;;;;;;;;;;;;;;5071521;28;19916;-65
2022/10/05 02:27:11;;;;;;;;;;;;;;;;;;5071130;28;20406;-65
2022/10/05 02:29:37;;;;;;;;;;;;;;;;;;5069111;28;19999;-65
2022/10/05 02:32:03;;;;;;;;;;;;;;;;;;5062374;28;20272;-65
2022/10/05 02:34:29;;;;;;;;;;;;;;;;;;5071322;28;19912;-65
2022/10/05 02:36:56;;;;;;;;;;;;;;;;;;5063169;28;19967;-65
2022/10/05 02:39:21;;;;;;;;;;;;;;;;;;5071443;28;19963;-65
2022/10/05 02:41:47;;;;;;;;;;;;;;;;;;5066199;28;19954;-65
2022/10/05 02:44:13;;;;;;;;;;;;;;;;;;5062443;28;20326;-65
2022/10/05 02:46:40;;;;;;;;;;;;;;;;;;5070877;28;19916;-65
2022/10/05 02:49:07;;;;;;;;;;;;;;;;;;5070362;28;19970;-65
2022/10/05 02:51:33;;;;;;;;;;;;;;;;;;5066125;28;19958;-65
2022/10/05 02:53:59;;;;;;;;;;;;;;;;;;5065184;28;20395;-64
2022/10/05 02:56:25;;;;;;;;;;;;;;;;;;5069255;28;19920;-65
2022/10/05 02:58:51;;;;;;;;;;;;;;;;;;5070914;28;20003;-65
2022/10/05 03:01:17;;;;;;;;;;;;;;;;;;5068483;28;19917;-65
2022/10/05 03:03:42;;;;;;;;;;;;;;;;;;5052834;28;19932;-65
2022/10/05 03:06:09;;;;;;;;;;;;;;;;;;5070325;28;20556;-65
2022/10/05 03:08:34;;;;;;;;;;;;;;;;;;5067047;28;19919;-65
2022/10/05 03:11:00;;;;;;;;;;;;;;;;;;5062269;28;20297;-65
2022/10/05 03:13:26;;;;;;;;;;;;;;;;;;5055798;28;19970;-65
2022/10/05 03:15:52;;;;;;;;;;;;;;;;;;5068768;28;20335;-65
2022/10/05 03:18:18;;;;;;;;;;;;;;;;;;5059859;28;19916;-65
2022/10/05 03:20:44;;;;;;;;;;;;;;;;;;5069573;28;20363;-65
2022/10/05 03:23:10;;;;;;;;;;;;;;;;;;5067076;28;19955;-65
2022/10/05 03:25:36;;;;;;;;;;;;;;;;;;5065949;28;19912;-65
2022/10/05 03:28:02;;;;;;;;;;;;;;;;;;5062682;28;19965;-65
2022/10/05 03:30:28;;;;;;;;;;;;;;;;;;5068907;28;19951;-65
2022/10/05 03:32:54;;;;;;;;;;;;;;;;;;5069105;28;20295;-65
2022/10/05 03:35:20;;;;;;;;;;;;;;;;;;5069580;28;19923;-65
2022/10/05 03:37:46;;;;;;;;;;;;;;;;;;5056543;28;19912;-65
2022/10/05 03:40:11;;;;;;;;;;;;;;;;;;5071093;28;20275;-65
2022/10/05 03:42:37;;;;;;;;;;;;;;;;;;5065404;28;19975;-65
2022/10/05 03:45:03;;;;;;;;;;;;;;;;;;5061902;28;19917;-65
2022/10/05 03:47:29;;;;;;;;;;;;;;;;;;5069871;28;20367;-65
2022/10/05 03:49:55;;;;;;;;;;;;;;;;;;5070767;28;20376;-65
2022/10/05 03:52:22;;;;;;;;;;;;;;;;;;5057816;28;19912;-65
2022/10/05 03:54:48;;;;;;;;;;;;;;;;;;5063236;28;20200;-65
2022/10/05 03:57:14;;;;;;;;;;;;;;;;;;5064267;28;20507;-65
2022/10/05 03:59:39;;;;;;;;;;;;;;;;;;5070769;28;19965;-65
2022/10/05 04:02:05;;;;;;;;;;;;;;;;;;5069125;28;19974;-65
2022/10/05 04:04:31;;;;;;;;;;;;;;;;;;5058928;28;19917;-65
2022/10/05 04:06:57;;;;;;;;;;;;;;;;;;5065216;28;20371;-65
2022/10/05 04:09:23;;;;;;;;;;;;;;;;;;5068598;28;19947;-65
2022/10/05 04:11:49;;;;;;;;;;;;;;;;;;5068860;28;20314;-65
2022/10/05 04:14:15;;;;;;;;;;;;;;;;;;5069853;28;19919;-64
2022/10/05 04:16:41;;;;;;;;;;;;;;;;;;5070187;28;19919;-65
2022/10/05 04:19:06;;;;;;;;;;;;;;;;;;5064311;28;19956;-65
2022/10/05 04:21:32;;;;;;;;;;;;;;;;;;5061600;28;19995;-65
2022/10/05 04:23:58;;;;;;;;;;;;;;;;;;5065541;28;20380;-65
2022/10/05 04:26:24;;;;;;;;;;;;;;;;;;5057583;28;20021;-65
2022/10/05 04:28:50;;;;;;;;;;;;;;;;;;5058852;28;19917;-65
2022/10/05 04:31:16;;;;;;;;;;;;;;;;;;5062963;28;19970;-65
2022/10/05 04:33:42;;;;;;;;;;;;;;;;;;5063008;28;19944;-65
2022/10/05 04:36:08;;;;;;;;;;;;;;;;;;5064822;28;20335;-65
2022/10/05 04:38:34;;;;;;;;;;;;;;;;;;5071976;28;20364;-65
2022/10/05 04:41:00;;;;;;;;;;;;;;;;;;5065538;28;19992;-65
2022/10/05 04:43:26;;;;;;;;;;;;;;;;;;5068766;28;20045;-64
2022/10/05 04:45:51;;;;;;;;;;;;;;;;;;5071253;28;19955;-65
2022/10/05 04:48:17;;;;;;;;;;;;;;;;;;5066834;28;19921;-65
2022/10/05 04:50:43;;;;;;;;;;;;;;;;;;5072319;28;19924;-65
2022/10/05 04:53:09;;;;;;;;;;;;;;;;;;5072219;28;20340;-65
2022/10/05 04:55:35;;;;;;;;;;;;;;;;;;5067038;28;19920;-65
2022/10/05 04:58:01;;;;;;;;;;;;;;;;;;5061712;28;20663;-64
2022/10/05 05:00:27;;;;;;;;;;;;;;;;;;5070501;28;19932;-65
2022/10/05 05:02:53;;;;;;;;;;;;;;;;;;5068294;28;20011;-65
2022/10/05 05:05:19;;;;;;;;;;;;;;;;;;5071106;28;20316;-65
2022/10/05 05:07:45;;;;;;;;;;;;;;;;;;5070828;28;19916;-63
2022/10/05 05:10:11;;;;;;;;;;;;;;;;;;5063717;28;20486;-65
2022/10/05 05:12:37;;;;;;;;;;;;;;;;;;5072109;28;19924;-65
2022/10/05 05:15:03;;;;;;;;;;;;;;;;;;5069178;28;19969;-65
2022/10/05 05:17:29;;;;;;;;;;;;;;;;;;5070583;28;20000;-64
2022/10/05 05:19:54;;;;;;;;;;;;;;;;;;5064619;28;20001;-64
2022/10/05 05:22:20;;;;;;;;;;;;;;;;;;5073464;28;19912;-64
2022/10/05 05:24:46;;;;;;;;;;;;;;;;;;5073560;28;19909;-65
2022/10/05 05:27:12;;;;;;;;;;;;;;;;;;5068356;28;19917;-64
2022/10/05 05:29:38;;;;;;;;;;;;;;;;;;5072586;28;20380;-64
2022/10/05 05:32:04;;;;;;;;;;;;;;;;;;5073012;28;20275;-64
2022/10/05 05:34:30;;;;;;;;;;;;;;;;;;5068469;28;19960;-64
2022/10/05 05:36:56;;;;;;;;;;;;;;;;;;5070352;28;19912;-64
2022/10/05 05:39:22;;;;;;;;;;;;;;;;;;5071526;28;19923;-64
2022/10/05 05:41:48;;;;;;;;;;;;;;;;;;5070198;28;19916;-64
2022/10/05 05:44:14;;;;;;;;;;;;;;;;;;5060745;28;19949;-64
2022/10/05 05:46:40;;;;;;;;;;;;;;;;;;5066641;28;19952;-63
2022/10/05 05:49:06;;;;;;;;;;;;;;;;;;5070212;28;19948;-64
2022/10/05 05:51:32;;;;;;;;;;;;;;;;;;5065228;28;19916;-65
2022/10/05 05:53:58;;;;;;;;;;;;;;;;;;5066821;28;20337;-64
2022/10/05 05:56:23;;;;;;;;;;;;;;;;;;5068389;28;19918;-64
2022/10/05 05:58:49;;;;;;;;;;;;;;;;;;5071109;28;19975;-64
2022/10/05 06:01:15;;;;;;;;;;;;;;;;;;5086132;28;20379;-64
2022/10/05 06:03:41;;;;;;;;;;;;;;;;;;5072083;28;20003;-64
2022/10/05 06:06:07;;;;;;;;;;;;;;;;;;5064015;28;19916;-64
2022/10/05 06:08:33;;;;;;;;;;;;;;;;;;5072795;28;19912;-64
2022/10/05 06:10:59;;;;;;;;;;;;;;;;;;5069883;28;20047;-64
2022/10/05 06:13:25;;;;;;;;;;;;;;;;;;5071018;28;20481;-64
2022/10/05 06:15:51;;;;;;;;;;;;;;;;;;5072514;28;19912;-64
2022/10/05 06:18:17;;;;;;;;;;;;;;;;;;5058861;28;20324;-63
2022/10/05 06:20:43;;;;;;;;;;;;;;;;;;5052202;28;19915;-64
2022/10/05 06:23:09;;;;;;;;;;;;;;;;;;5052731;28;19982;-64
2022/10/05 06:25:34;;;;;;;;;;;;;;;;;;5070437;28;20356;-64
2022/10/05 06:28:00;;;;;;;;;;;;;;;;;;5072108;28;19909;-64
2022/10/05 06:30:26;;;;;;;;;;;;;;;;;;5071954;28;19947;-64
2022/10/05 06:32:52;;;;;;;;;;;;;;;;;;5069044;28;19987;-64
2022/10/05 06:35:18;;;;;;;;;;;;;;;;;;5072183;28;20374;-64
2022/10/05 06:37:44;;;;;;;;;;;;;;;;;;5072302;28;19955;-64
2022/10/05 06:40:10;;;;;;;;;;;;;;;;;;5071706;28;19916;-64
2022/10/05 06:42:36;;;;;;;;;;;;;;;;;;5071758;28;19916;-64
2022/10/05 06:45:02;;;;;;;;;;;;;;;;;;5071908;28;19951;-64
2022/10/05 06:47:28;;;;;;;;;;;;;;;;;;5070238;28;19916;-64
2022/10/05 06:49:54;;;;;;;;;;;;;;;;;;5069520;28;19919;-64
2022/10/05 06:52:20;;;;;;;;;;;;;;;;;;5071740;28;20379;-64
2022/10/05 06:54:46;;;;;;;;;;;;;;;;;;5071498;28;19912;-64
2022/10/05 06:57:12;;;;;;;;;;;;;;;;;;5071177;28;19957;-64
2022/10/05 06:59:38;;;;;;;;;;;;;;;;;;5071624;28;19963;-64
2022/10/05 07:02:04;;;;;;;;;;;;;;;;;;5069707;28;20301;-64
2022/10/05 07:04:29;;;;;;;;;;;;;;;;;;5069149;28;19918;-64
2022/10/05 07:06:55;;;;;;;;;;;;;;;;;;5071782;28;19909;-64
2022/10/05 07:09:21;;;;;;;;;;;;;;;;;;5063474;28;20019;-64
2022/10/05 07:11:47;;;;;;;;;;;;;;;;;;5070666;28;19923;-64
2022/10/05 07:14:13;;;;;;;;;;;;;;;;;;5071861;28;19954;-64
2022/10/05 07:16:39;;;;;;;;;;;;;;;;;;5069739;28;19956;-64
2022/10/05 07:19:05;;;;;;;;;;;;;;;;;;5085284;28;19951;-64
2022/10/05 07:21:33;;;;;;;;;;;;;;;;;;5069781;28;20024;-64
2022/10/05 07:23:59;;;;;;;;;;;;;;;;;;5069649;28;20014;-65
2022/10/05 07:26:25;;;;;;;;;;;;;;;;;;5056512;28;20083;-64
2022/10/05 07:28:51;;;;;;;;;;;;;;;;;;5068384;28;19917;-64
2022/10/05 07:31:17;;;;;;;;;;;;;;;;;;5071283;28;19947;-64
2022/10/05 07:33:42;;;;;;;;;;;;;;;;;;5071528;28;20003;-64
2022/10/05 07:39:13;;;;;;;;;;;;;;;;;;5035390;28;20377;-64
2022/10/05 07:41:39;;;;;;;;;;;;;;;;;;5048647;28;20059;-64
2022/10/05 07:44:05;;;;;;;;;;;;;;;;;;5058218;28;20394;-64
2022/10/05 07:46:30;;;;;;;;;;;;;;;;;;5071352;28;19954;-64
2022/10/05 07:48:56;;;;;;;;;;;;;;;;;;5072571;28;19915;-64
2022/10/05 07:51:22;;;;;;;;;;;;;;;;;;5075117;28;19912;-64
2022/10/05 07:53:48;;;;;;;;;;;;;;;;;;5071154;28;19950;-64
2022/10/05 07:56:14;;;;;;;;;;;;;;;;;;5070766;28;19916;-64
2022/10/05 07:58:40;;;;;;;;;;;;;;;;;;5069374;28;19913;-64
2022/10/05 08:01:07;;;;;;;;;;;;;;;;;;5070912;28;20545;-64
2022/10/05 08:03:33;;;;;;;;;;;;;;;;;;5069492;28;19912;-64
2022/10/05 08:05:59;;;;;;;;;;;;;;;;;;5070992;28;19936;-64
2022/10/05 08:08:24;;;;;;;;;;;;;;;;;;5073997;28;20275;-64
2022/10/05 08:10:50;;;;;;;;;;;;;;;;;;5074314;28;19996;-64
2022/10/05 08:13:16;;;;;;;;;;;;;;;;;;5075005;28;19922;-64
2022/10/05 08:15:42;;;;;;;;;;;;;;;;;;5075025;28;20372;-64
2022/10/05 08:18:08;;;;;;;;;;;;;;;;;;5071115;28;20007;-64
2022/10/05 08:20:34;;;;;;;;;;;;;;;;;;5074336;28;20415;-64
2022/10/05 08:23:00;;;;;;;;;;;;;;;;;;5074569;28;19913;-64
2022/10/05 08:25:26;;;;;;;;;;;;;;;;;;5064298;28;20367;-64
2022/10/05 08:27:52;;;;;;;;;;;;;;;;;;5074778;28;19959;-60
2022/10/05 08:30:18;;;;;;;;;;;;;;;;;;5073330;28;19999;-60
2022/10/05 08:32:44;;;;;;;;;;;;;;;;;;5068951;28;20325;-59
2022/10/05 08:35:10;;;;;;;;;;;;;;;;;;5054443;28;19915;-60
2022/10/05 08:37:36;;;;;;;;;;;;;;;;;;5073571;28;19916;-56
2022/10/05 08:40:02;;;;;;;;;;;;;;;;;;5074271;28;19916;-57
2022/10/05 08:42:27;;;;;;;;;;;;;;;;;;5074307;28;19967;-59
2022/10/05 08:44:54;;;;;;;;;;;;;;;;;;5072846;28;19977;-56
2022/10/05 08:47:19;;;;;;;;;;;;;;;;;;5074297;28;19924;-59
2022/10/05 08:49:45;;;;;;;;;;;;;;;;;;5073769;28;19931;-58
2022/10/05 08:52:11;;;;;;;;;;;;;;;;;;5072922;28;19967;-58
2022/10/05 08:54:37;;;;;;;;;;;;;;;;;;5074164;28;19913;-60
2022/10/05 08:57:03;;;;;;;;;;;;;;;;;;5072687;28;19947;-59
2022/10/05 08:59:29;;;;;;;;;;;;;;;;;;5073938;28;19969;-59
2022/10/05 09:01:55;;;;;;;;;;;;;;;;;;5062563;28;19909;-59
2022/10/05 09:04:21;;;;;;;;;;;;;;;;;;5073810;28;20261;-59
2022/10/05 09:06:47;;;;;;;;;;;;;;;;;;5069985;28;19921;-59
2022/10/05 09:09:13;;;;;;;;;;;;;;;;;;5062980;28;20002;-58
2022/10/05 09:11:39;;;;;;;;;;;;;;;;;;5069143;28;19948;-59
2022/10/05 09:14:05;;;;;;;;;;;;;;;;;;5072745;28;19944;-59
2022/10/05 09:16:31;;;;;;;;;;;;;;;;;;5073975;28;19909;-59
2022/10/05 09:18:58;;;;;;;;;;;;;;;;;;5070913;28;19927;-59
2022/10/05 09:21:24;;;;;;;;;;;;;;;;;;5073540;28;19915;-59
2022/10/05 09:23:50;;;;;;;;;;;;;;;;;;5070886;28;20429;-60
2022/10/05 09:26:16;;;;;;;;;;;;;;;;;;5073084;28;19968;-60
2022/10/05 09:28:42;;;;;;;;;;;;;;;;;;5072126;28;20015;-59
2022/10/05 09:31:08;;;;;;;;;;;;;;;;;;5073355;28;19920;-59
2022/10/05 09:33:34;;;;;;;;;;;;;;;;;;5065122;28;20382;-60
2022/10/05 09:36:00;;;;;;;;;;;;;;;;;;5070902;28;19912;-60
2022/10/05 09:38:26;;;;;;;;;;;;;;;;;;5070729;28;20411;-60
2022/10/05 09:40:52;;;;;;;;;;;;;;;;;;5062817;28;19909;-60
2022/10/05 09:43:18;;;;;;;;;;;;;;;;;;5073208;28;19952;-60
2022/10/05 09:45:44;;;;;;;;;;;;;;;;;;5072710;28;19909;-59
2022/10/05 09:48:10;;;;;;;;;;;;;;;;;;5070473;28;19908;-59
2022/10/05 09:50:36;;;;;;;;;;;;;;;;;;5062175;28;19996;-60
2022/10/05 09:53:03;;;;;;;;;;;;;;;;;;5073001;28;19908;-60
2022/10/05 09:55:30;;;;;;;;;;;;;;;;;;5064409;28;19923;-59
2022/10/05 09:57:55;;;;;;;;;;;;;;;;;;5072956;28;19908;-59
2022/10/05 10:00:21;;;;;;;;;;;;;;;;;;5069250;28;19927;-59
2022/10/05 10:02:47;;;;;;;;;;;;;;;;;;5065238;28;20328;-59
2022/10/05 10:05:14;;;;;;;;;;;;;;;;;;5067860;28;19913;-59
2022/10/05 10:07:40;;;;;;;;;;;;;;;;;;5070936;28;20384;-59
2022/10/05 10:10:05;;;;;;;;;;;;;;;;;;5069725;28;19946;-59
2022/10/05 10:12:31;;;;;;;;;;;;;;;;;;5069385;28;19908;-59
2022/10/05 10:14:57;;;;;;;;;;;;;;;;;;5072138;28;19916;-60
2022/10/05 10:17:23;;;;;;;;;;;;;;;;;;5070099;28;19969;-59
2022/10/05 10:19:49;;;;;;;;;;;;;;;;;;5072093;28;19908;-59
2022/10/05 10:22:15;;;;;;;;;;;;;;;;;;5071745;28;19923;-59
2022/10/05 10:24:41;;;;;;;;;;;;;;;;;;5072442;28;20280;-59
2022/10/05 10:27:07;;;;;;;;;;;;;;;;;;5070179;28;19960;-59
2022/10/05 10:29:33;;;;;;;;;;;;;;;;;;5072237;28;19944;-59
2022/10/05 10:32:00;;;;;;;;;;;;;;;;;;5071767;28;19944;-59
2022/10/05 10:34:27;;;;;;;;;;;;;;;;;;5061539;28;19970;-60
2022/10/05 10:36:54;;;;;;;;;;;;;;;;;;5072524;28;19909;-59
2022/10/05 10:39:20;;;;;;;;;;;;;;;;;;5072299;28;20391;-59
2022/10/05 10:41:46;;;;;;;;;;;;;;;;;;5068932;28;19940;-59
2022/10/05 10:44:12;;;;;;;;;;;;;;;;;;5062514;28;19913;-59
2022/10/05 10:46:38;;;;;;;;;;;;;;;;;;5067893;28;19918;-59
2022/10/05 10:49:05;;;;;;;;;;;;;;;;;;5072127;28;19909;-60
2022/10/05 10:51:31;;;;;;;;;;;;;;;;;;5071633;28;19920;-60
2022/10/05 10:54:02;;;;;;;;;;;;;;;;;;5071754;28;19935;-59
2022/10/05 10:56:28;;;;;;;;;;;;;;;;;;5087511;28;20001;-60
2022/10/05 10:58:54;;;;;;;;;;;;;;;;;;5070261;28;20019;-58
2022/10/05 11:01:20;;;;;;;;;;;;;;;;;;5068747;28;19920;-59
2022/10/05 11:03:46;;;;;;;;;;;;;;;;;;5060583;28;19980;-59
2022/10/05 11:06:12;;;;;;;;;;;;;;;;;;5070660;28;19995;-59
2022/10/05 11:08:37;;;;;;;;;;;;;;;;;;5070114;28;19923;-58
2022/10/05 11:11:04;;;;;;;;;;;;;;;;;;5067667;28;20407;-59
2022/10/05 11:13:29;;;;;;;;;;;;;;;;;;5067985;28;20441;-59
2022/10/05 11:15:55;;;;;;;;;;;;;;;;;;5071571;28;19908;-59
2022/10/05 11:18:21;;;;;;;;;;;;;;;;;;5071657;28;20003;-59
2022/10/05 11:20:47;;;;;;;;;;;;;;;;;;5070399;28;20001;-59
2022/10/05 11:23:13;;;;;;;;;;;;;;;;;;5071487;28;19952;-59
2022/10/05 11:25:43;;;;;;;;;;;;;;;;;;5068277;28;19962;-58
2022/10/05 11:28:09;;;;;;;;;;;;;;;;;;5058620;28;19992;-58
2022/10/05 11:30:34;;;;;;;;;;;;;;;;;;5070081;28;20014;-58
2022/10/05 11:33:00;;;;;;;;;;;;;;;;;;5067420;28;19955;-59
2022/10/05 11:35:26;;;;;;;;;;;;;;;;;;5069958;28;19912;-59
2022/10/05 11:37:52;;;;;;;;;;;;;;;;;;5071305;28;19954;-59
2022/10/05 11:40:19;;;;;;;;;;;;;;;;;;5068969;28;20346;-59
2022/10/05 11:42:45;;;;;;;;;;;;;;;;;;5072691;28;20023;-58
2022/10/05 11:45:11;;;;;;;;;;;;;;;;;;5075555;28;20367;-58
2022/10/05 11:47:37;;;;;;;;;;;;;;;;;;5075547;28;19950;-59
2022/10/05 11:50:05;;;;;;;;;;;;;;;;;;5090598;28;19920;-59
2022/10/05 11:52:31;;;;;;;;;;;;;;;;;;5074548;28;19917;-58
2022/10/05 11:54:58;;;;;;;;;;;;;;;;;;5075292;28;19908;-59
2022/10/05 11:57:24;;;;;;;;;;;;;;;;;;5069753;28;20276;-59
2022/10/05 11:59:50;;;;;;;;;;;;;;;;;;5066558;28;19966;-59
2022/10/05 12:02:16;;;;;;;;;;;;;;;;;;5074619;28;20295;-59
2022/10/05 12:04:42;;;;;;;;;;;;;;;;;;5075369;28;19912;-59
2022/10/05 12:07:07;;;;;;;;;;;;;;;;;;5075138;28;19977;-59
2022/10/05 12:09:33;;;;;;;;;;;;;;;;;;5078848;28;20249;-59
2022/10/05 12:11:59;;;;;;;;;;;;;;;;;;5075820;28;19908;-59
2022/10/05 12:14:25;;;;;;;;;;;;;;;;;;5069306;28;19948;-58
2022/10/05 12:16:51;;;;;;;;;;;;;;;;;;5074319;28;19963;-60
2022/10/05 12:19:17;;;;;;;;;;;;;;;;;;5065569;28;20353;-60
2022/10/05 12:21:43;;;;;;;;;;;;;;;;;;5073751;28;19909;-58
2022/10/05 12:24:09;;;;;;;;;;;;;;;;;;5071564;28;20015;-57
2022/10/05 12:26:35;;;;;;;;;;;;;;;;;;5074903;28;20300;-58
2022/10/05 12:29:01;;;;;;;;;;;;;;;;;;5072946;28;19951;-57
2022/10/05 12:31:27;;;;;;;;;;;;;;;;;;5063553;28;19956;-58
2022/10/05 12:33:53;;;;;;;;;;;;;;;;;;5074438;28;20328;-58
2022/10/05 12:36:19;;;;;;;;;;;;;;;;;;5073847;28;19995;-58
2022/10/05 12:38:45;;;;;;;;;;;;;;;;;;5059339;28;19916;-58
2022/10/05 12:41:12;;;;;;;;;;;;;;;;;;5054140;28;19923;-58
2022/10/05 12:43:38;;;;;;;;;;;;;;;;;;5067015;28;20383;-59
2022/10/05 12:46:04;;;;;;;;;;;;;;;;;;5074396;28;20429;-58
2022/10/05 12:48:30;;;;;;;;;;;;;;;;;;5074138;28;19909;-58
2022/10/05 12:50:56;;;;;;;;;;;;;;;;;;5054881;28;20091;-58
2022/10/05 12:53:22;;;;;;;;;;;;;;;;;;5054230;28;19908;-58
2022/10/05 12:55:48;;;;;;;;;;;;;;;;;;5054191;28;19913;-58
2022/10/05 12:58:14;;;;;;;;;;;;;;;;;;5066500;28;19940;-58
2022/10/05 13:00:39;;;;;;;;;;;;;;;;;;5067330;28;19956;-57
2022/10/05 13:03:05;;;;;;;;;;;;;;;;;;5053964;28;20003;-57
2022/10/05 13:05:31;;;;;;;;;;;;;;;;;;5070691;28;19923;-58
2022/10/05 13:07:57;;;;;;;;;;;;;;;;;;5074242;28;19908;-59
2022/10/05 13:10:23;;;;;;;;;;;;;;;;;;5076626;28;20382;-58
2022/10/05 13:12:49;;;;;;;;;;;;;;;;;;5071178;28;20015;-58
2022/10/05 13:15:15;;;;;;;;;;;;;;;;;;5073858;28;19908;-58
2022/10/05 13:17:41;;;;;;;;;;;;;;;;;;5073612;28;19962;-58
2022/10/05 13:20:07;;;;;;;;;;;;;;;;;;5082654;28;19959;-58
2022/10/05 13:22:33;;;;;;;;;;;;;;;;;;5073748;28;19993;-58
2022/10/05 13:24:59;;;;;;;;;;;;;;;;;;5072465;28;20027;-58
2022/10/05 13:27:26;;;;;;;;;;;;;;;;;;5073641;28;19908;-57
2022/10/05 13:29:52;;;;;;;;;;;;;;;;;;5073254;28;19916;-58
2022/10/05 13:32:18;;;;;;;;;;;;;;;;;;5068311;28;19919;-58
2022/10/05 13:34:44;;;;;;;;;;;;;;;;;;5068873;28;20012;-57
2022/10/05 13:37:10;;;;;;;;;;;;;;;;;;5083741;28;20394;-58
2022/10/05 13:39:36;;;;;;;;;;;;;;;;;;5078171;28;19908;-58
2022/10/05 13:42:02;;;;;;;;;;;;;;;;;;5073161;28;20361;-58
2022/10/05 13:44:28;;;;;;;;;;;;;;;;;;5072225;28;19962;-57
2022/10/05 13:46:54;;;;;;;;;;;;;;;;;;5072787;28;19974;-58
2022/10/05 13:49:25;;;;;;;;;;;;;;;;;;5066553;28;19909;-58
2022/10/05 13:51:51;;;;;;;;;;;;;;;;;;5070683;28;19912;-58
2022/10/05 13:54:17;;;;;;;;;;;;;;;;;;5043928;28;19935;-58
2022/10/05 13:56:43;;;;;;;;;;;;;;;;;;5060499;28;19909;-58
2022/10/05 13:59:10;;;;;;;;;;;;;;;;;;5066987;28;19943;-59
2022/10/05 14:01:36;;;;;;;;;;;;;;;;;;5071337;28;19913;-58
2022/10/05 14:04:02;;;;;;;;;;;;;;;;;;5072683;28;20372;-58
2022/10/05 14:06:29;;;;;;;;;;;;;;;;;;5066198;28;20295;-59
2022/10/05 14:08:56;;;;;;;;;;;;;;;;;;5063618;28;19927;-58
2022/10/05 14:11:22;;;;;;;;;;;;;;;;;;5069916;28;20375;-58
2022/10/05 14:13:48;;;;;;;;;;;;;;;;;;5067722;28;20007;-59
2022/10/05 14:16:14;;;;;;;;;;;;;;;;;;5066288;28;19924;-58
2022/10/05 14:18:40;;;;;;;;;;;;;;;;;;5059691;28;19962;-59
2022/10/05 14:21:06;;;;;;;;;;;;;;;;;;5071047;28;19913;-58
2022/10/05 14:23:32;;;;;;;;;;;;;;;;;;5067232;28;20376;-58
2022/10/05 14:25:57;;;;;;;;;;;;;;;;;;5064859;28;20170;-58
2022/10/05 14:28:23;;;;;;;;;;;;;;;;;;5063923;28;20360;-58
2022/10/05 14:30:49;;;;;;;;;;;;;;;;;;5054114;28;19917;-58
2022/10/05 14:33:15;;;;;;;;;;;;;;;;;;5061278;28;19920;-59
2022/10/05 14:35:41;;;;;;;;;;;;;;;;;;5060203;28;19920;-59
2022/10/05 14:38:07;;;;;;;;;;;;;;;;;;5064678;28;19959;-58
2022/10/05 14:40:33;;;;;;;;;;;;;;;;;;5066324;28;19939;-58
2022/10/05 14:42:59;;;;;;;;;;;;;;;;;;5065391;28;19912;-57
2022/10/05 14:45:28;;;;;;;;;;;;;;;;;;5068309;28;19989;-57
2022/10/05 14:47:58;;;;;;;;;;;;;;;;;;5064145;28;19924;-58
2022/10/05 14:50:25;;;;;;;;;;;;;;;;;;5063670;28;19991;-57
2022/10/05 14:52:51;;;;;;;;;;;;;;;;;;5067921;28;19913;-57
2022/10/05 14:55:17;;;;;;;;;;;;;;;;;;5069943;28;19965;-59
2022/10/05 14:57:42;;;;;;;;;;;;;;;;;;5067755;28;20366;-60
2022/10/05 15:00:09;;;;;;;;;;;;;;;;;;5060937;28;19966;-60
2022/10/05 15:02:35;;;;;;;;;;;;;;;;;;5072808;28;20623;-60
2022/10/05 15:05:01;;;;;;;;;;;;;;;;;;5071791;28;19988;-60
2022/10/05 15:07:27;;;;;;;;;;;;;;;;;;5063611;28;19918;-59
2022/10/05 15:09:53;;;;;;;;;;;;;;;;;;5071740;28;19947;-60
2022/10/05 15:12:19;;;;;;;;;;;;;;;;;;5079407;28;20403;-60
2022/10/05 15:14:45;;;;;;;;;;;;;;;;;;5066953;28;19919;-60
2022/10/05 15:17:11;;;;;;;;;;;;;;;;;;5072140;28;19935;-59
2022/10/05 15:19:37;;;;;;;;;;;;;;;;;;5071438;28;20272;-60
2022/10/05 15:22:03;;;;;;;;;;;;;;;;;;5063237;28;19916;-60
2022/10/05 15:24:29;;;;;;;;;;;;;;;;;;5064979;28;19921;-59
2022/10/05 15:26:55;;;;;;;;;;;;;;;;;;5061412;28;19919;-60
2022/10/05 15:29:21;;;;;;;;;;;;;;;;;;5060922;28;19955;-59
2022/10/05 15:31:47;;;;;;;;;;;;;;;;;;5069642;28;20435;-59
2022/10/05 15:34:14;;;;;;;;;;;;;;;;;;5068890;28;19919;-60
2022/10/05 15:36:41;;;;;;;;;;;;;;;;;;5065818;28;19970;-60
2022/10/05 15:39:07;;;;;;;;;;;;;;;;;;5060181;28;19971;-60
2022/10/05 15:41:33;;;;;;;;;;;;;;;;;;5061161;28;20377;-60
2022/10/05 15:43:59;;;;;;;;;;;;;;;;;;5065269;28;20387;-59
2022/10/05 15:46:25;;;;;;;;;;;;;;;;;;5070477;28;19912;-60
2022/10/05 15:48:51;;;;;;;;;;;;;;;;;;5068384;28;20375;-60
2022/10/05 15:51:17;;;;;;;;;;;;;;;;;;5070805;28;19965;-60
2022/10/05 15:53:43;;;;;;;;;;;;;;;;;;5069073;28;19948;-60
2022/10/05 15:56:09;;;;;;;;;;;;;;;;;;5067034;28;20445;-60
2022/10/05 15:58:35;;;;;;;;;;;;;;;;;;5063933;28;19913;-60
2022/10/05 16:01:00;;;;;;;;;;;;;;;;;;5068067;28;20003;-59
2022/10/05 16:03:26;;;;;;;;;;;;;;;;;;5065558;28;19924;-60
2022/10/05 16:08:49;;;;;;;;;;;;;;;;;;5058680;28;19918;-59
2022/10/05 16:11:15;;;;;;;;;;;;;;;;;;5068695;28;20427;-59
2022/10/05 16:13:41;;;;;;;;;;;;;;;;;;5064408;28;19987;-59
2022/10/05 16:16:07;;;;;;;;;;;;;;;;;;5069141;28;19916;-59
2022/10/05 16:18:33;;;;;;;;;;;;;;;;;;5070338;28;19913;-58
2022/10/05 16:20:59;;;;;;;;;;;;;;;;;;5067657;28;19982;-59
2022/10/05 16:23:25;;;;;;;;;;;;;;;;;;5065762;28;20003;-59
2022/10/05 16:25:51;;;;;;;;;;;;;;;;;;5065881;28;19912;-59
2022/10/05 16:28:17;;;;;;;;;;;;;;;;;;5072022;28;19919;-59
2022/10/05 16:30:43;;;;;;;;;;;;;;;;;;5070096;28;19999;-60
2022/10/05 16:33:08;;;;;;;;;;;;;;;;;;5064696;28;19978;-60
2022/10/05 16:35:34;;;;;;;;;;;;;;;;;;5071493;28;19973;-59
2022/10/05 16:38:01;;;;;;;;;;;;;;;;;;5062602;28;19913;-58
2022/10/05 16:40:27;;;;;;;;;;;;;;;;;;5071632;28;19916;-59
2022/10/05 16:42:53;;;;;;;;;;;;;;;;;;5072070;28;19924;-59